Terminal Aerodrome Forecast
Issued by NWS

Home | Current Version | Previous Version | Text Only | Print | Product List | Glossary On
Versions: 1 2 3 4 5 6 7 8 9 10 11 12 13
000
FTUS45 KPIH 191100
TAFSUN
TAF
KSUN 191120Z 1912/2012 31009KT 6SM HZ SKC
     FM191700 15008KT P6SM FEW100
     FM200300 32009KT P6SM SKC
      AMD LTD TO CLD VIS AND WIND TIL 191300=

USA.gov is the U.S. government's official web portal to all federal, state and local government web resources and services.